Time;durP1;ratioP1;P1;durP2;ratioP2;P2;SDS_P1;SDS_P2;PMS_P1;PMS_P2;Temp;Humidity;BMP_temperature;BMP_pressure;BME280_temperature;BME280_humidity;BME280_pressure;Samples;Min_cycle;Max_cycle;Signal;HPM_P1;HPM_P2
2022/02/11 00:00:50;;;;;;;127.70;26.02;;;10.70;92.40;;;;;;5017141;28;20164;-61
2022/02/11 00:08:29;;;;;;;119.72;24.38;;;10.70;92.30;;;;;;5027337;28;20095;-60
2022/02/11 00:10:55;;;;;;;120.78;27.48;;;10.70;92.30;;;;;;5017208;28;20490;-61
2022/02/11 00:13:20;;;;;;;125.47;26.70;;;10.70;92.40;;;;;;5018174;28;20086;-63
2022/02/11 00:15:47;;;;;;;110.50;26.60;;;10.70;92.40;;;;;;5009754;28;20103;-60
2022/02/11 00:18:14;;;;;;;97.45;21.58;;;10.60;92.40;;;;;;5021234;28;20026;-60
2022/02/11 00:20:39;;;;;;;96.63;21.35;;;10.60;92.40;;;;;;5020585;28;20047;-64
2022/02/11 00:23:06;;;;;;;98.07;20.00;;;10.60;92.40;;;;;;5020107;28;20037;-62
2022/02/11 00:25:36;;;;;;;76.93;21.25;;;10.60;92.70;;;;;;5016047;28;20249;-64
2022/02/11 00:33:31;;;;;;;74.22;19.67;;;10.60;92.50;;;;;;5027945;28;20084;-61
2022/02/11 00:36:01;;;;;;;84.45;20.77;;;10.50;92.60;;;;;;5025741;28;20108;-63
2022/02/11 01:02:22;;;;;;;89.38;21.30;;;10.40;92.90;;;;;;5021966;28;20098;-62
2022/02/11 01:04:47;;;;;;;86.32;23.02;;;10.40;92.80;;;;;;5027094;28;20049;-62
2022/02/11 01:07:13;;;;;;;78.90;20.05;;;10.40;92.80;;;;;;5012505;28;20063;-63
2022/02/11 01:09:40;;;;;;;93.68;22.77;;;10.40;92.90;;;;;;5024689;28;20511;-63
2022/02/11 01:12:07;;;;;;;78.60;20.80;;;10.40;92.90;;;;;;5014791;28;21904;-61
2022/02/11 01:14:35;;;;;;;87.93;19.65;;;10.40;92.80;;;;;;4997946;28;20091;-61
2022/02/11 01:17:31;;;;;;;83.80;20.00;;;10.40;92.80;;;;;;5025795;28;20037;-60
2022/02/11 01:19:58;;;;;;;88.70;21.50;;;10.40;92.90;;;;;;5018957;28;20045;-61
2022/02/11 01:28:07;;;;;;;76.13;19.45;;;10.40;92.90;;;;;;5023122;28;20491;-61
2022/02/11 01:33:41;;;;;;;78.22;20.40;;;10.40;92.80;;;;;;5026144;28;20419;-60
2022/02/11 01:42:32;;;;;;;88.00;19.42;;;10.40;92.80;;;;;;5027094;28;20422;-64
2022/02/11 01:52:23;;;;;;;58.78;18.40;;;10.30;92.80;;;;;;5003314;28;20077;-64
2022/02/11 01:58:17;;;;;;;69.72;19.35;;;10.30;92.80;;;;;;5021209;28;20029;-62
2022/02/11 02:19:43;;;;;;;64.13;18.17;;;10.30;92.80;;;;;;5017540;28;20124;-62
2022/02/11 02:38:22;;;;;;;47.55;17.05;;;10.20;92.90;;;;;;5008392;28;20037;-62
2022/02/11 02:57:34;;;;;;;44.97;15.03;;;10.20;92.80;;;;;;5015882;28;20045;-63
2022/02/11 03:35:56;;;;;;;44.55;13.27;;;10.10;93.10;;;;;;5010817;28;20037;-62
2022/02/11 03:49:15;;;;;;;38.10;13.85;;;10.10;93.10;;;;;;5029850;28;20039;-64
2022/02/11 03:53:14;;;;;;;38.30;13.65;;;10.10;93.10;;;;;;5030367;28;20209;-62
2022/02/11 04:55:16;;;;;;;18.50;7.93;;;10.00;94.20;;;;;;5015392;28;20045;-61
2022/02/11 05:00:26;;;;;;;21.17;7.80;;;10.00;94.20;;;;;;5018714;28;20040;-61
2022/02/11 05:02:55;;;;;;;22.33;7.47;;;9.90;94.20;;;;;;5022266;28;20049;-61
2022/02/11 05:05:21;;;;;;;19.83;7.03;;;9.90;94.20;;;;;;5017680;28;20108;-64
2022/02/11 05:07:46;;;;;;;16.25;7.35;;;9.90;94.20;;;;;;5025139;28;20442;-60
2022/02/11 05:10:14;;;;;;;17.25;6.22;;;9.90;94.20;;;;;;5018405;28;20030;-64
2022/02/11 05:12:42;;;;;;;17.70;7.40;;;9.90;94.20;;;;;;5014987;28;20065;-60
2022/02/11 05:15:09;;;;;;;16.98;6.60;;;9.90;94.10;;;;;;5021678;28;20033;-61
2022/02/11 05:17:38;;;;;;;17.25;6.70;;;9.90;94.10;;;;;;5023698;28;20033;-63
2022/02/11 05:20:05;;;;;;;17.40;5.45;;;9.80;94.10;;;;;;5025293;28;20028;-63
2022/02/11 05:22:30;;;;;;;15.38;6.13;;;9.80;94.00;;;;;;5010983;28;20091;-61
2022/02/11 05:24:56;;;;;;;16.33;6.13;;;9.80;94.00;;;;;;5024167;28;20034;-62
2022/02/11 05:27:21;;;;;;;16.92;6.38;;;9.80;94.00;;;;;;5009199;28;20076;-63
2022/02/11 05:29:47;;;;;;;17.52;5.88;;;9.70;94.00;;;;;;5008923;28;20056;-64
2022/02/11 05:32:13;;;;;;;13.68;5.20;;;9.70;94.10;;;;;;5016116;28;20180;-62
2022/02/11 05:34:39;;;;;;;19.40;5.50;;;9.70;94.00;;;;;;4999445;28;21790;-61
2022/02/11 05:37:04;;;;;;;19.15;5.38;;;9.70;94.00;;;;;;5009974;28;20041;-62
2022/02/11 05:39:30;;;;;;;21.33;6.53;;;9.70;93.90;;;;;;5011395;28;20036;-62
2022/02/11 05:41:55;;;;;;;15.38;4.93;;;9.70;93.90;;;;;;5012013;28;20033;-64
2022/02/11 05:44:21;;;;;;;27.75;5.60;;;9.70;93.90;;;;;;5019063;28;20389;-62
2022/02/11 05:46:46;;;;;;;69.68;8.98;;;9.70;93.70;;;;;;5017190;28;20520;-64
2022/02/11 05:49:12;;;;;;;74.63;8.45;;;9.70;93.70;;;;;;5014568;28;20060;-64
2022/02/11 05:51:37;;;;;;;104.70;12.30;;;9.70;93.70;;;;;;5022390;28;20034;-62
2022/02/11 05:54:03;;;;;;;247.63;20.85;;;9.70;93.70;;;;;;5006020;28;20037;-63
2022/02/11 05:56:28;;;;;;;198.52;18.05;;;9.70;93.70;;;;;;5025469;28;20026;-63
2022/02/11 05:58:54;;;;;;;130.82;13.18;;;9.60;93.60;;;;;;5027156;28;20516;-63
2022/02/11 06:01:19;;;;;;;181.90;15.35;;;9.70;93.60;;;;;;5025402;28;20040;-61
2022/02/11 06:03:45;;;;;;;121.93;11.77;;;9.60;93.70;;;;;;5024644;28;20044;-61
2022/02/11 06:06:10;;;;;;;127.15;12.50;;;9.60;93.60;;;;;;5023771;28;20161;-64
2022/02/11 06:08:36;;;;;;;114.32;12.82;;;9.60;93.60;;;;;;5024023;28;20156;-61
2022/02/11 06:11:01;;;;;;;111.00;11.68;;;9.60;93.60;;;;;;5025978;28;20030;-62
2022/02/11 06:13:27;;;;;;;122.18;12.77;;;9.60;93.60;;;;;;5022482;28;20025;-63
2022/02/11 06:15:53;;;;;;;128.13;12.25;;;9.60;93.60;;;;;;5020718;28;20053;-63
2022/02/11 06:18:18;;;;;;;80.15;10.90;;;9.60;93.70;;;;;;5022210;28;20018;-61
2022/02/11 06:20:44;;;;;;;100.57;10.88;;;9.60;93.70;;;;;;5018373;28;20029;-64
2022/02/11 06:23:09;;;;;;;70.78;9.38;;;9.60;93.60;;;;;;5019108;28;20045;-63
2022/02/11 06:25:35;;;;;;;73.55;10.60;;;9.60;93.60;;;;;;5015384;28;20072;-61
2022/02/11 06:28:00;;;;;;;120.22;13.50;;;9.60;93.60;;;;;;5026922;28;20056;-64
2022/02/11 06:30:26;;;;;;;103.90;10.48;;;9.60;93.90;;;;;;5013466;28;20033;-62
2022/02/11 06:32:52;;;;;;;73.72;9.82;;;9.60;93.80;;;;;;5015028;28;20040;-63
2022/02/11 06:35:18;;;;;;;60.35;9.23;;;9.60;93.70;;;;;;5011327;28;20532;-64
2022/02/11 06:37:45;;;;;;;58.15;7.95;;;9.50;93.60;;;;;;5013679;28;20034;-62
2022/02/11 06:40:12;;;;;;;86.63;8.93;;;9.60;93.60;;;;;;5024158;28;20380;-62
2022/02/11 06:42:37;;;;;;;74.38;8.10;;;9.50;93.50;;;;;;5013183;28;20108;-63
2022/02/11 06:45:03;;;;;;;65.80;7.57;;;9.50;93.40;;;;;;5017847;28;20611;-65
2022/02/11 06:47:29;;;;;;;67.18;8.07;;;9.50;93.50;;;;;;5021878;28;20041;-63
2022/02/11 06:49:54;;;;;;;61.53;9.65;;;9.40;93.50;;;;;;5020850;28;20037;-62
2022/02/11 06:52:20;;;;;;;47.30;7.00;;;9.40;93.60;;;;;;5016271;28;20484;-60
2022/02/11 06:54:45;;;;;;;46.53;7.40;;;9.40;93.50;;;;;;5019945;28;20512;-64
2022/02/11 06:57:11;;;;;;;45.63;7.50;;;9.50;93.40;;;;;;5020597;28;20033;-64
2022/02/11 06:59:36;;;;;;;69.05;8.15;;;9.40;93.40;;;;;;5006514;28;20034;-62
2022/02/11 07:02:02;;;;;;;61.53;7.65;;;9.40;93.40;;;;;;5015854;28;20057;-62
2022/02/11 07:04:28;;;;;;;68.25;8.90;;;9.40;93.30;;;;;;5012724;28;20106;-64
2022/02/11 07:06:54;;;;;;;77.18;8.90;;;9.40;93.40;;;;;;5020096;28;20040;-60
2022/02/11 07:09:19;;;;;;;70.40;8.15;;;9.40;93.40;;;;;;5023297;28;20013;-60
2022/02/11 07:11:45;;;;;;;59.75;7.00;;;9.40;93.30;;;;;;5016609;28;20036;-64
2022/02/11 07:14:11;;;;;;;41.90;6.28;;;9.40;93.30;;;;;;5023693;28;20509;-64
2022/02/11 07:16:37;;;;;;;46.95;5.60;;;9.40;93.20;;;;;;5013968;28;20091;-60
2022/02/11 07:19:02;;;;;;;51.78;6.22;;;9.40;93.10;;;;;;5018225;28;20100;-64
2022/02/11 07:21:28;;;;;;;38.75;6.80;;;9.30;93.10;;;;;;5020864;28;20029;-63
2022/02/11 07:23:53;;;;;;;34.17;6.18;;;9.30;93.10;;;;;;5019907;28;20469;-64
2022/02/11 07:26:19;;;;;;;24.90;4.82;;;9.30;93.10;;;;;;5021108;28;20520;-60
2022/02/11 07:28:44;;;;;;;54.63;5.82;;;9.30;93.00;;;;;;5017144;28;20268;-62
2022/02/11 07:31:10;;;;;;;43.60;6.15;;;9.30;93.10;;;;;;5022868;28;20025;-63
2022/02/11 07:33:35;;;;;;;44.47;5.70;;;9.30;93.10;;;;;;5024365;28;22253;-62
2022/02/11 07:36:01;;;;;;;45.47;5.28;;;9.30;93.10;;;;;;5016711;28;20470;-64
2022/02/11 07:38:26;;;;;;;32.00;5.13;;;9.30;93.10;;;;;;5015485;28;20093;-61
2022/02/11 07:40:52;;;;;;;38.40;4.93;;;9.30;93.10;;;;;;5022219;28;20030;-63
2022/02/11 07:43:18;;;;;;;28.92;4.20;;;9.30;93.10;;;;;;5019240;28;20041;-62
2022/02/11 07:45:43;;;;;;;54.00;5.53;;;9.20;93.00;;;;;;5025398;28;20025;-61
2022/02/11 07:48:09;;;;;;;39.72;6.00;;;9.30;93.00;;;;;;5019405;28;20124;-64
2022/02/11 07:50:34;;;;;;;46.08;5.50;;;9.30;93.00;;;;;;5026338;28;20026;-61
2022/02/11 07:53:00;;;;;;;41.50;6.50;;;9.30;93.00;;;;;;5025511;28;20056;-63
2022/02/11 07:55:25;;;;;;;47.15;5.65;;;9.30;93.00;;;;;;5026063;28;20069;-61
2022/02/11 07:57:52;;;;;;;73.55;6.60;;;9.30;92.90;;;;;;5019329;28;20548;-62
2022/02/11 08:00:17;;;;;;;53.17;6.22;;;9.20;92.90;;;;;;5027051;28;20025;-62
2022/02/11 08:02:43;;;;;;;40.35;5.57;;;9.30;93.00;;;;;;5023297;28;20037;-60
2022/02/11 08:05:09;;;;;;;61.72;5.78;;;9.30;92.90;;;;;;5025821;28;20821;-64
2022/02/11 08:07:34;;;;;;;44.17;5.13;;;9.30;92.80;;;;;;5020739;28;20129;-64
2022/02/11 08:10:00;;;;;;;85.47;7.38;;;9.30;92.80;;;;;;5022656;28;20060;-61
2022/02/11 08:12:26;;;;;;;47.80;5.75;;;9.30;92.80;;;;;;5021518;28;20480;-61
2022/02/11 08:14:51;;;;;;;123.15;10.05;;;9.30;92.70;;;;;;5017928;28;20083;-62
2022/02/11 08:17:17;;;;;;;52.47;5.68;;;9.30;92.70;;;;;;5021214;28;20032;-63
2022/02/11 08:19:43;;;;;;;47.20;5.53;;;9.30;92.60;;;;;;5022437;28;20073;-62
2022/02/11 08:22:08;;;;;;;28.88;5.60;;;9.30;92.60;;;;;;5023729;28;20033;-63
2022/02/11 08:24:34;;;;;;;44.05;4.75;;;9.30;92.60;;;;;;5024768;28;20068;-60
2022/02/11 08:26:59;;;;;;;47.60;5.03;;;9.20;92.50;;;;;;5027277;28;20057;-61
2022/02/11 08:29:26;;;;;;;41.03;5.18;;;9.30;92.50;;;;;;5025052;28;20060;-61
2022/02/11 08:31:54;;;;;;;47.25;6.78;;;9.30;92.40;;;;;;5019714;28;20040;-65
2022/02/11 08:34:21;;;;;;;54.45;6.38;;;9.30;92.50;;;;;;5020110;28;20045;-61
2022/02/11 08:36:47;;;;;;;46.45;6.18;;;9.30;92.60;;;;;;5019214;28;20068;-63
2022/02/11 08:39:17;;;;;;;45.95;6.07;;;9.30;92.60;;;;;;5022032;28;20103;-62
2022/02/11 08:41:42;;;;;;;38.10;6.53;;;9.30;92.60;;;;;;5024603;28;20421;-61
2022/02/11 08:44:08;;;;;;;55.20;6.68;;;9.30;92.50;;;;;;5026150;28;20056;-60
2022/02/11 08:46:34;;;;;;;58.33;6.35;;;9.30;92.60;;;;;;5017252;28;20449;-59
2022/02/11 08:48:59;;;;;;;57.13;7.65;;;9.30;92.70;;;;;;5016623;28;20049;-61
2022/02/11 08:51:25;;;;;;;64.43;7.93;;;9.30;92.60;;;;;;5015833;28;20029;-63
2022/02/11 08:53:51;;;;;;;51.15;6.78;;;9.30;92.70;;;;;;5001729;28;20038;-61
2022/02/11 08:56:17;;;;;;;45.17;6.22;;;9.30;92.70;;;;;;4992890;28;20013;-61
2022/02/11 08:58:43;;;;;;;54.83;8.60;;;9.30;92.60;;;;;;5015520;28;20034;-63
2022/02/11 09:01:09;;;;;;;81.20;9.25;;;9.30;92.50;;;;;;5014111;28;20152;-60
2022/02/11 09:03:35;;;;;;;62.15;6.97;;;9.30;92.70;;;;;;5017129;28;20108;-63
2022/02/11 09:06:00;;;;;;;58.83;8.13;;;9.40;92.70;;;;;;5013499;28;20064;-60
2022/02/11 09:08:26;;;;;;;107.55;9.77;;;9.40;92.80;;;;;;5016667;28;20029;-58
2022/02/11 09:10:52;;;;;;;69.28;8.75;;;9.40;92.80;;;;;;5020879;28;20029;-60
2022/02/11 09:13:17;;;;;;;79.22;7.97;;;9.40;92.70;;;;;;5016903;28;20116;-61
2022/02/11 09:15:46;;;;;;;66.85;10.00;;;9.40;92.70;;;;;;5019788;28;20022;-60
2022/02/11 09:18:12;;;;;;;72.97;11.07;;;9.40;92.60;;;;;;5020508;28;20021;-58
2022/02/11 09:20:37;;;;;;;79.78;9.73;;;9.40;92.70;;;;;;5005186;28;20038;-59
2022/02/11 09:23:03;;;;;;;118.82;13.52;;;9.40;92.70;;;;;;5016726;28;20603;-62
2022/02/11 09:25:29;;;;;;;83.22;11.75;;;9.40;92.60;;;;;;5010138;28;20035;-60
2022/02/11 09:27:55;;;;;;;109.85;11.27;;;9.40;92.80;;;;;;5015439;28;20096;-59
2022/02/11 09:30:21;;;;;;;122.85;11.85;;;9.40;92.90;;;;;;5011148;28;20022;-63
2022/02/11 09:32:51;;;;;;;101.15;11.93;;;9.40;92.80;;;;;;5016849;28;20033;-59
2022/02/11 09:35:17;;;;;;;94.45;11.50;;;9.40;92.80;;;;;;5017172;28;20131;-62
2022/02/11 09:37:43;;;;;;;97.88;13.00;;;9.50;92.90;;;;;;4999442;28;20056;-61
2022/02/11 09:40:10;;;;;;;96.75;11.23;;;9.50;92.90;;;;;;5019924;28;20073;-58
2022/02/11 09:42:36;;;;;;;132.90;12.88;;;9.50;92.80;;;;;;5021196;28;20033;-59
2022/02/11 09:45:02;;;;;;;130.57;15.32;;;9.50;92.70;;;;;;5020164;28;20033;-58
2022/02/11 09:47:28;;;;;;;121.38;14.15;;;9.50;92.70;;;;;;5018944;28;20377;-61
2022/02/11 09:49:53;;;;;;;151.05;16.15;;;9.50;92.70;;;;;;5020587;28;20033;-60
2022/02/11 09:52:19;;;;;;;155.95;17.23;;;9.50;92.80;;;;;;4985233;28;20058;-59
2022/02/11 09:54:45;;;;;;;138.32;14.88;;;9.50;92.70;;;;;;5014530;28;20042;-61
2022/02/11 09:57:12;;;;;;;142.52;14.70;;;9.50;92.70;;;;;;5019727;28;20060;-60
2022/02/11 09:59:37;;;;;;;115.22;14.43;;;9.50;92.70;;;;;;4998401;28;20691;-59
2022/02/11 10:02:03;;;;;;;99.15;12.90;;;9.50;92.60;;;;;;5018300;28;20041;-61
2022/02/11 10:04:29;;;;;;;120.22;15.25;;;9.50;92.50;;;;;;5003726;28;20034;-61
2022/02/11 10:06:56;;;;;;;150.50;16.73;;;9.60;92.30;;;;;;5018789;28;20045;-60
2022/02/11 10:09:22;;;;;;;130.15;15.65;;;9.60;92.50;;;;;;5012045;28;20052;-59
2022/02/11 10:11:48;;;;;;;127.55;15.50;;;9.60;92.60;;;;;;5018682;28;20761;-61
2022/02/11 10:14:17;;;;;;;128.70;16.90;;;9.60;92.60;;;;;;5015634;28;20148;-63
2022/02/11 10:16:56;;;;;;;134.68;16.40;;;9.60;92.50;;;;;;5017455;28;20021;-61
2022/02/11 10:19:44;;;;;;;129.50;16.63;;;9.60;92.20;;;;;;5011388;28;20033;-62
2022/02/11 10:22:16;;;;;;;154.23;16.58;;;9.60;92.30;;;;;;5021444;28;20030;-60
2022/02/11 10:24:42;;;;;;;156.25;18.42;;;9.60;92.40;;;;;;5034730;28;20065;-61
2022/02/11 10:27:21;;;;;;;109.95;14.43;;;9.60;92.30;;;;;;5017719;28;20443;-60
2022/02/11 10:29:47;;;;;;;151.98;15.05;;;9.60;92.10;;;;;;5017659;28;20174;-61
2022/02/11 10:32:13;;;;;;;145.05;20.63;;;9.70;91.80;;;;;;5014529;28;20042;-64
2022/02/11 10:34:41;;;;;;;135.05;16.05;;;9.60;92.00;;;;;;5012050;28;20045;-64
2022/02/11 10:37:07;;;;;;;139.02;16.65;;;9.60;91.90;;;;;;5013131;28;20029;-64
2022/02/11 10:39:35;;;;;;;147.68;18.40;;;9.70;91.90;;;;;;5017905;28;20162;-64
2022/02/11 10:42:08;;;;;;;137.45;18.02;;;9.70;91.90;;;;;;5016809;28;20321;-60
2022/02/11 10:44:36;;;;;;;125.20;17.08;;;9.70;91.90;;;;;;5013099;28;20368;-63
2022/02/11 10:47:10;;;;;;;112.30;14.77;;;9.70;91.80;;;;;;5015639;28;20037;-61
2022/02/11 10:49:41;;;;;;;158.75;18.95;;;9.70;91.60;;;;;;5012613;28;20041;-61
2022/02/11 10:52:09;;;;;;;168.32;20.70;;;9.70;91.60;;;;;;5017128;28;20041;-65
2022/02/11 10:54:35;;;;;;;164.77;18.70;;;9.70;91.60;;;;;;5007296;28;20124;-60
2022/02/11 10:57:03;;;;;;;142.90;18.90;;;9.70;91.60;;;;;;5011766;28;20545;-60
2022/02/11 10:59:30;;;;;;;134.85;17.98;;;9.70;91.50;;;;;;4999458;28;20072;-60
2022/02/11 11:01:57;;;;;;;173.80;19.73;;;9.70;91.40;;;;;;5021625;28;20619;-59
2022/02/11 11:04:22;;;;;;;195.88;22.42;;;9.70;91.40;;;;;;4987931;28;20022;-60
2022/02/11 11:06:48;;;;;;;191.25;20.73;;;9.70;91.40;;;;;;5017584;28;20512;-60
2022/02/11 11:09:17;;;;;;;163.38;18.98;;;9.80;91.40;;;;;;5011248;28;20552;-60
2022/02/11 11:11:46;;;;;;;157.23;19.13;;;9.80;91.30;;;;;;5014087;28;20224;-59
2022/02/11 11:14:13;;;;;;;152.55;18.95;;;9.80;91.30;;;;;;5001856;28;20484;-59
2022/02/11 11:16:39;;;;;;;168.95;18.75;;;9.80;91.10;;;;;;5013330;28;20280;-61
2022/02/11 11:19:05;;;;;;;132.55;17.45;;;9.80;91.10;;;;;;4986421;28;20029;-59
2022/02/11 11:21:31;;;;;;;151.45;16.50;;;9.80;90.90;;;;;;5009668;28;20599;-62
2022/02/11 11:23:57;;;;;;;119.60;17.38;;;9.80;90.80;;;;;;5015397;28;20376;-59
2022/02/11 11:26:49;;;;;;;122.13;17.83;;;9.80;90.80;;;;;;5015614;28;20091;-60
2022/02/11 11:29:16;;;;;;;178.13;19.80;;;9.80;90.80;;;;;;5016704;28;20140;-62
2022/02/11 11:31:58;;;;;;;119.45;17.35;;;9.80;90.90;;;;;;5025286;28;20133;-62
2022/02/11 11:34:25;;;;;;;173.30;19.55;;;9.80;91.00;;;;;;5024386;28;20667;-61
2022/02/11 11:36:53;;;;;;;143.52;17.98;;;9.80;90.90;;;;;;5021985;28;20041;-59
2022/02/11 11:39:19;;;;;;;152.82;16.48;;;9.80;90.80;;;;;;5025053;28;20111;-63
2022/02/11 11:42:06;;;;;;;116.85;15.88;;;9.90;90.70;;;;;;5016907;28;20124;-61
2022/02/11 11:44:41;;;;;;;112.72;14.65;;;9.80;90.60;;;;;;5019257;28;20104;-60
2022/02/11 11:47:09;;;;;;;104.50;15.03;;;9.90;90.40;;;;;;5003044;28;20041;-63
2022/02/11 11:49:41;;;;;;;111.20;14.95;;;9.90;90.40;;;;;;5022834;28;20120;-60
2022/02/11 11:52:10;;;;;;;118.78;15.52;;;9.90;90.40;;;;;;5015082;28;20038;-59
2022/02/11 11:54:36;;;;;;;105.70;14.63;;;9.90;90.30;;;;;;4979562;28;20065;-62
2022/02/11 11:57:07;;;;;;;107.30;13.45;;;9.90;90.20;;;;;;5021550;28;20109;-61
2022/02/11 11:59:36;;;;;;;104.20;12.65;;;9.90;90.20;;;;;;5019721;28;20022;-63
2022/02/11 12:02:04;;;;;;;124.95;14.07;;;9.90;90.20;;;;;;5021797;28;20984;-61
2022/02/11 12:04:39;;;;;;;102.60;13.48;;;9.90;90.10;;;;;;5014717;28;20378;-59
2022/02/11 12:07:06;;;;;;;79.35;12.77;;;9.90;90.00;;;;;;5018279;28;20021;-60
2022/02/11 12:09:32;;;;;;;91.85;14.50;;;9.90;90.00;;;;;;5014568;28;20033;-62
2022/02/11 12:12:02;;;;;;;99.07;13.73;;;10.00;89.90;;;;;;5022813;28;20048;-62
2022/02/11 12:14:28;;;;;;;99.45;14.85;;;9.90;89.70;;;;;;5020437;28;20172;-61
2022/02/11 12:16:56;;;;;;;91.63;13.48;;;9.90;89.80;;;;;;5006301;28;20648;-59
2022/02/11 12:19:22;;;;;;;105.65;13.00;;;9.90;89.70;;;;;;5010082;28;20029;-60
2022/02/11 12:21:48;;;;;;;83.53;12.52;;;9.90;89.40;;;;;;5023345;28;20382;-62
2022/02/11 12:29:53;;;;;;;130.77;15.88;;;9.90;89.10;;;;;;5020655;28;20126;-60
2022/02/11 12:32:20;;;;;;;102.03;13.00;;;9.90;88.80;;;;;;5018884;28;20496;-59
2022/02/11 12:34:53;;;;;;;58.47;9.68;;;9.90;88.70;;;;;;5022280;28;20400;-61
2022/02/11 12:37:19;;;;;;;83.90;9.80;;;9.90;88.30;;;;;;5022258;28;20060;-60
2022/02/11 12:39:45;;;;;;;66.72;9.32;;;9.90;88.00;;;;;;4999380;28;20477;-59
2022/02/11 12:42:15;;;;;;;79.85;10.60;;;9.90;87.80;;;;;;5018554;28;20462;-62
2022/02/11 12:44:41;;;;;;;69.13;10.65;;;9.90;87.90;;;;;;5024604;28;20361;-59
2022/02/11 12:47:06;;;;;;;72.38;10.77;;;9.90;87.70;;;;;;5021171;28;20051;-61
2022/02/11 12:49:35;;;;;;;90.28;11.07;;;9.90;87.50;;;;;;5023594;28;20117;-61
2022/02/11 12:52:01;;;;;;;104.20;11.88;;;9.90;87.40;;;;;;5024904;28;20515;-59
2022/02/11 12:54:26;;;;;;;122.63;14.02;;;9.90;87.60;;;;;;5017443;28;20110;-60
2022/02/11 12:57:04;;;;;;;112.70;14.65;;;10.00;87.60;;;;;;5007881;28;20044;-62
2022/02/11 12:59:30;;;;;;;96.38;12.23;;;10.00;87.20;;;;;;5020709;28;20113;-59
2022/02/11 13:01:55;;;;;;;119.22;13.80;;;10.00;87.00;;;;;;5018518;28;20021;-60
2022/02/11 13:04:21;;;;;;;83.20;10.43;;;10.00;86.90;;;;;;5002852;28;20057;-61
2022/02/11 13:06:47;;;;;;;102.00;11.77;;;10.00;86.80;;;;;;5008797;28;20153;-60
2022/02/11 13:09:12;;;;;;;110.32;12.32;;;10.00;86.90;;;;;;5022706;28;20120;-61
2022/02/11 13:11:39;;;;;;;106.32;13.52;;;10.00;86.80;;;;;;5019577;28;20450;-59
2022/02/11 13:14:06;;;;;;;60.78;8.52;;;10.10;87.00;;;;;;5017753;28;20100;-61
2022/02/11 13:16:33;;;;;;;74.55;11.35;;;10.10;86.40;;;;;;5022383;28;20059;-62
2022/02/11 13:19:09;;;;;;;79.25;10.82;;;10.10;86.00;;;;;;5017713;28;20061;-61
2022/02/11 13:21:35;;;;;;;87.55;11.50;;;10.10;86.00;;;;;;5017155;28;20044;-61
2022/02/11 13:24:02;;;;;;;99.82;13.15;;;10.10;86.30;;;;;;5019100;28;20033;-60
2022/02/11 13:26:28;;;;;;;99.75;13.68;;;10.10;86.30;;;;;;5025446;28;20045;-61
2022/02/11 13:28:55;;;;;;;91.15;13.05;;;10.10;86.20;;;;;;5007472;28;20052;-62
2022/02/11 13:31:20;;;;;;;101.00;12.63;;;10.20;86.30;;;;;;5014885;28;20034;-62
2022/02/11 13:33:46;;;;;;;141.27;16.27;;;10.20;86.00;;;;;;5019701;28;20048;-62
2022/02/11 13:36:21;;;;;;;111.07;14.05;;;10.20;86.30;;;;;;5018625;28;20041;-61
2022/02/11 13:38:48;;;;;;;132.50;16.15;;;10.30;86.30;;;;;;5021433;28;20064;-59
2022/02/11 13:41:15;;;;;;;134.98;16.50;;;10.30;86.30;;;;;;5021796;28;20068;-60
2022/02/11 13:43:58;;;;;;;128.25;16.63;;;10.30;86.30;;;;;;5021790;28;20038;-59
2022/02/11 13:46:24;;;;;;;127.70;14.73;;;10.30;86.30;;;;;;5021004;28;20025;-59
2022/02/11 13:48:53;;;;;;;176.77;17.67;;;10.30;86.30;;;;;;5016082;28;21011;-62
2022/02/11 13:51:19;;;;;;;293.77;28.17;;;10.20;86.70;;;;;;5016531;28;20033;-59
2022/02/11 13:53:52;;;;;;;180.82;18.13;;;10.40;87.20;;;;;;5016341;28;20527;-60
2022/02/11 13:56:38;;;;;;;140.35;18.10;;;10.50;86.60;;;;;;5001965;28;20056;-61
2022/02/11 13:59:06;;;;;;;128.38;16.08;;;10.50;86.20;;;;;;5013537;28;20041;-59
2022/02/11 14:01:32;;;;;;;159.55;19.33;;;10.60;86.00;;;;;;5018301;28;20038;-59
2022/02/11 14:03:59;;;;;;;154.82;20.08;;;10.60;86.20;;;;;;5018304;28;20430;-62
2022/02/11 14:06:25;;;;;;;160.05;17.13;;;10.60;86.10;;;;;;5003927;28;20048;-59
2022/02/11 14:08:50;;;;;;;152.05;16.77;;;10.70;86.20;;;;;;5023516;28;20033;-63
2022/02/11 14:11:19;;;;;;;125.03;15.40;;;10.70;86.20;;;;;;5023062;28;20033;-59
2022/02/11 14:13:45;;;;;;;151.65;16.63;;;10.70;85.60;;;;;;5001658;28;20025;-59
2022/02/11 14:16:11;;;;;;;131.82;14.48;;;10.70;85.90;;;;;;5018950;28;20021;-62
2022/02/11 14:18:41;;;;;;;142.77;16.83;;;10.80;85.80;;;;;;5007123;28;20037;-61
2022/02/11 14:21:09;;;;;;;156.32;18.15;;;10.80;85.40;;;;;;5021561;28;20025;-59
2022/02/11 14:23:35;;;;;;;171.00;16.40;;;10.90;85.50;;;;;;5002609;28;20452;-62
2022/02/11 14:26:01;;;;;;;213.05;20.45;;;10.80;84.90;;;;;;5022331;28;20105;-62
2022/02/11 14:28:28;;;;;;;170.00;19.95;;;10.90;85.10;;;;;;5024692;28;20037;-62
2022/02/11 14:30:56;;;;;;;173.70;17.90;;;11.00;85.20;;;;;;5022183;28;20024;-62
2022/02/11 14:33:22;;;;;;;202.48;20.65;;;11.00;85.20;;;;;;5016628;28;20053;-60
2022/02/11 14:35:47;;;;;;;223.35;25.40;;;11.10;84.50;;;;;;5019741;28;20377;-60
2022/02/11 14:38:13;;;;;;;207.57;21.92;;;11.10;85.00;;;;;;5025351;28;20033;-59
2022/02/11 14:41:46;;;;;;;199.77;22.17;;;11.10;85.00;;;;;;5014538;28;20492;-59
2022/02/11 14:43:24;;;;;;;165.00;18.88;;;11.10;84.80;;;;;;5018068;28;20704;-62
2022/02/11 14:45:51;;;;;;;238.02;24.15;;;11.10;84.80;;;;;;5018396;28;20068;-61
2022/02/11 14:48:16;;;;;;;241.02;23.95;;;11.10;84.70;;;;;;5015807;28;20507;-62
2022/02/11 14:50:42;;;;;;;184.45;18.85;;;11.10;84.60;;;;;;5020495;28;20058;-62
2022/02/11 14:53:07;;;;;;;174.77;20.38;;;11.20;84.10;;;;;;4996829;28;20044;-61
2022/02/11 14:55:33;;;;;;;210.95;23.38;;;11.10;83.80;;;;;;5019060;28;20032;-62
2022/02/11 14:58:00;;;;;;;338.30;33.85;;;11.20;83.90;;;;;;4996631;28;20061;-59
2022/02/11 15:00:26;;;;;;;179.90;21.90;;;11.20;83.80;;;;;;5026881;28;20048;-60
2022/02/11 15:02:51;;;;;;;185.50;20.77;;;11.10;84.10;;;;;;5022207;28;20033;-60
2022/02/11 15:05:17;;;;;;;205.05;21.83;;;11.20;83.70;;;;;;5021559;28;20029;-61
2022/02/11 15:07:44;;;;;;;235.65;25.40;;;11.10;83.70;;;;;;5020585;28;20465;-60
2022/02/11 15:10:09;;;;;;;141.90;18.13;;;11.20;83.70;;;;;;5021779;28;20104;-62
2022/02/11 15:12:35;;;;;;;124.00;15.57;;;11.20;82.90;;;;;;5024449;28;20168;-62
2022/02/11 15:15:01;;;;;;;146.00;18.80;;;11.20;82.60;;;;;;5021198;28;20362;-59
2022/02/11 15:17:26;;;;;;;198.68;21.30;;;11.20;82.70;;;;;;5023145;28;20033;-61
2022/02/11 15:19:52;;;;;;;191.30;21.52;;;11.20;83.00;;;;;;5019685;28;20060;-61
2022/02/11 15:22:17;;;;;;;201.13;22.05;;;11.20;83.00;;;;;;5018023;28;20044;-63
2022/02/11 15:24:48;;;;;;;177.43;21.50;;;11.20;83.30;;;;;;5021250;28;20666;-61
2022/02/11 15:27:14;;;;;;;169.00;19.08;;;11.30;83.20;;;;;;5021493;28;20069;-61
2022/02/11 15:29:41;;;;;;;186.68;22.17;;;11.30;82.70;;;;;;5017811;28;20119;-63
2022/02/11 15:32:07;;;;;;;203.45;23.90;;;11.30;82.80;;;;;;5020094;28;20041;-61
2022/02/11 15:34:32;;;;;;;172.25;20.73;;;11.40;83.20;;;;;;5022919;28;20029;-59
2022/02/11 15:36:58;;;;;;;203.60;23.98;;;11.40;82.90;;;;;;5021833;28;20079;-63
2022/02/11 15:39:23;;;;;;;198.00;24.85;;;11.40;82.90;;;;;;5028603;28;20476;-62
2022/02/11 15:41:49;;;;;;;210.98;25.13;;;11.40;83.20;;;;;;5024689;28;20036;-61
2022/02/11 15:44:15;;;;;;;205.55;22.20;;;11.50;83.20;;;;;;5021055;28;20064;-61
2022/02/11 15:46:42;;;;;;;182.05;20.63;;;11.50;83.10;;;;;;5017900;28;20049;-60
2022/02/11 15:49:07;;;;;;;195.75;23.17;;;11.50;83.80;;;;;;5021445;28;20055;-62
2022/02/11 15:51:34;;;;;;;178.85;23.65;;;11.50;82.90;;;;;;5023562;28;20029;-62
2022/02/11 15:54:00;;;;;;;197.57;22.45;;;11.50;83.00;;;;;;5024406;28;20552;-62
2022/02/11 15:56:25;;;;;;;213.93;22.65;;;11.50;83.00;;;;;;5021139;28;20064;-62
2022/02/11 15:58:51;;;;;;;160.98;18.92;;;11.50;83.20;;;;;;5020392;28;20037;-61
2022/02/11 16:01:18;;;;;;;148.02;17.38;;;11.50;82.70;;;;;;5023918;28;20034;-61
2022/02/11 16:03:43;;;;;;;185.98;19.85;;;11.50;82.20;;;;;;5020453;28;20022;-60
2022/02/11 16:06:09;;;;;;;156.75;20.05;;;11.50;82.20;;;;;;5032736;28;20033;-61
2022/02/11 16:08:35;;;;;;;183.20;21.52;;;11.50;82.20;;;;;;5023267;28;20040;-62
2022/02/11 16:11:00;;;;;;;174.55;21.67;;;11.60;82.50;;;;;;5021467;28;20148;-61
2022/02/11 16:13:26;;;;;;;169.40;21.73;;;11.50;82.40;;;;;;5017093;28;20037;-60
2022/02/11 16:15:51;;;;;;;196.65;21.00;;;11.50;82.30;;;;;;5020150;28;21186;-62
2022/02/11 16:18:23;;;;;;;169.73;21.48;;;11.60;82.20;;;;;;5040605;28;20546;-62